sensor_id;sensor_type;location;lat;lon;timestamp;pressure;altitude;pressure_sealevel;temperature
64624;BMP280;51031;50.912;9.242;2022-08-19T00:00:05;98755.66;;;27.72
64624;BMP280;51031;50.912;9.242;2022-08-19T00:00:23;98759.00;;;27.74
64624;BMP280;51031;50.912;9.242;2022-08-19T00:00:39;98759.00;;;27.74
64624;BMP280;51031;50.912;9.242;2022-08-19T00:00:55;98760.66;;;27.75
64624;BMP280;51031;50.912;9.242;2022-08-19T00:01:11;98757.78;;;27.77
64624;BMP280;51031;50.912;9.242;2022-08-19T00:01:28;98762.94;;;27.78
64624;BMP280;51031;50.912;9.242;2022-08-19T00:01:48;98754.88;;;27.78
64624;BMP280;51031;50.912;9.242;2022-08-19T00:02:04;98757.56;;;27.78
64624;BMP280;51031;50.912;9.242;2022-08-19T00:02:19;98754.88;;;27.78
64624;BMP280;51031;50.912;9.242;2022-08-19T00:02:35;98758.22;;;27.80
64624;BMP280;51031;50.912;9.242;2022-08-19T00:02:52;98761.75;;;27.81
64624;BMP280;51031;50.912;9.242;2022-08-19T00:03:08;98760.69;;;27.82
64624;BMP280;51031;50.912;9.242;2022-08-19T00:03:24;98758.84;;;27.82
64624;BMP280;51031;50.912;9.242;2022-08-19T00:03:40;98762.34;;;27.83
64624;BMP280;51031;50.912;9.242;2022-08-19T00:03:56;98764.88;;;27.84
64624;BMP280;51031;50.912;9.242;2022-08-19T00:04:13;98761.34;;;27.84
64624;BMP280;51031;50.912;9.242;2022-08-19T00:04:32;98750.38;;;27.85
64624;BMP280;51031;50.912;9.242;2022-08-19T00:04:50;98752.03;;;27.86
64624;BMP280;51031;50.912;9.242;2022-08-19T00:05:10;98765.50;;;27.86
64624;BMP280;51031;50.912;9.242;2022-08-19T00:05:26;98760.78;;;27.88
64624;BMP280;51031;50.912;9.242;2022-08-19T00:05:42;98757.06;;;27.89
64624;BMP280;51031;50.912;9.242;2022-08-19T00:05:58;98759.56;;;27.90
64624;BMP280;51031;50.912;9.242;2022-08-19T00:06:14;98759.56;;;27.90
64624;BMP280;51031;50.912;9.242;2022-08-19T00:06:30;98755.84;;;27.91
64624;BMP280;51031;50.912;9.242;2022-08-19T00:06:47;98754.81;;;27.92
64624;BMP280;51031;50.912;9.242;2022-08-19T00:07:04;98752.94;;;27.93
64624;BMP280;51031;50.912;9.242;2022-08-19T00:07:21;98753.75;;;27.93
64624;BMP280;51031;50.912;9.242;2022-08-19T00:07:37;98759.78;;;27.95
64624;BMP280;51031;50.912;9.242;2022-08-19T00:07:53;98755.25;;;27.96
64624;BMP280;51031;50.912;9.242;2022-08-19T00:08:08;98749.84;;;27.96
64624;BMP280;51031;50.912;9.242;2022-08-19T00:08:24;98755.25;;;27.96
64624;BMP280;51031;50.912;9.242;2022-08-19T00:08:41;98756.06;;;27.96
64624;BMP280;51031;50.912;9.242;2022-08-19T00:08:58;98752.53;;;27.96
64624;BMP280;51031;50.912;9.242;2022-08-19T00:09:17;98743.44;;;27.97
64624;BMP280;51031;50.912;9.242;2022-08-19T00:09:34;98748.81;;;27.97
64624;BMP280;51031;50.912;9.242;2022-08-19T00:09:50;98745.13;;;27.98
64624;BMP280;51031;50.912;9.242;2022-08-19T00:10:07;98745.94;;;27.98
64624;BMP280;51031;50.912;9.242;2022-08-19T00:10:23;98748.63;;;27.98
64624;BMP280;51031;50.912;9.242;2022-08-19T00:10:39;98751.31;;;27.98
64624;BMP280;51031;50.912;9.242;2022-08-19T00:10:55;98747.59;;;27.99
64624;BMP280;51031;50.912;9.242;2022-08-19T00:11:11;98747.59;;;27.99
64624;BMP280;51031;50.912;9.242;2022-08-19T00:11:29;98744.91;;;27.99
64624;BMP280;51031;50.912;9.242;2022-08-19T00:11:45;98751.13;;;28.00
64624;BMP280;51031;50.912;9.242;2022-08-19T00:12:01;98752.81;;;28.01
64624;BMP280;51031;50.912;9.242;2022-08-19T00:12:18;98750.94;;;28.01
64624;BMP280;51031;50.912;9.242;2022-08-19T00:12:34;98747.41;;;28.01
64624;BMP280;51031;50.912;9.242;2022-08-19T00:12:51;98749.06;;;28.02
64624;BMP280;51031;50.912;9.242;2022-08-19T00:13:08;98754.25;;;28.03
64624;BMP280;51031;50.912;9.242;2022-08-19T00:13:24;98750.72;;;28.03
64624;BMP280;51031;50.912;9.242;2022-08-19T00:13:40;98752.38;;;28.04
64624;BMP280;51031;50.912;9.242;2022-08-19T00:13:56;98753.25;;;28.04
64624;BMP280;51031;50.912;9.242;2022-08-19T00:14:15;98751.38;;;28.05
64624;BMP280;51031;50.912;9.242;2022-08-19T00:14:32;98753.03;;;28.06
64624;BMP280;51031;50.912;9.242;2022-08-19T00:14:47;98758.19;;;28.07
64624;BMP280;51031;50.912;9.242;2022-08-19T00:15:04;98753.69;;;28.08
64624;BMP280;51031;50.912;9.242;2022-08-19T00:15:21;98750.97;;;28.08
64624;BMP280;51031;50.912;9.242;2022-08-19T00:15:37;98752.63;;;28.09
64624;BMP280;51031;50.912;9.242;2022-08-19T00:15:54;98755.31;;;28.09
64624;BMP280;51031;50.912;9.242;2022-08-19T00:16:10;98757.19;;;28.08
64624;BMP280;51031;50.912;9.242;2022-08-19T00:16:26;98757.00;;;28.10
64624;BMP280;51031;50.912;9.242;2022-08-19T00:16:46;98752.41;;;28.10
64624;BMP280;51031;50.912;9.242;2022-08-19T00:17:06;98758.03;;;28.09
64624;BMP280;51031;50.912;9.242;2022-08-19T00:17:22;98755.31;;;28.09
64624;BMP280;51031;50.912;9.242;2022-08-19T00:17:38;98761.75;;;28.08
64624;BMP280;51031;50.912;9.242;2022-08-19T00:17:55;98755.50;;;28.07
64624;BMP280;51031;50.912;9.242;2022-08-19T00:18:11;98759.25;;;28.06
64624;BMP280;51031;50.912;9.242;2022-08-19T00:18:27;98754.91;;;28.05
64624;BMP280;51031;50.912;9.242;2022-08-19T00:18:43;98749.69;;;28.04
64624;BMP280;51031;50.912;9.242;2022-08-19T00:18:58;98752.38;;;28.04
64624;BMP280;51031;50.912;9.242;2022-08-19T00:19:15;98756.13;;;28.03
64624;BMP280;51031;50.912;9.242;2022-08-19T00:19:33;98758.81;;;28.03
64624;BMP280;51031;50.912;9.242;2022-08-19T00:19:49;98752.81;;;28.01
64624;BMP280;51031;50.912;9.242;2022-08-19T00:20:06;98753.81;;;28.00
64624;BMP280;51031;50.912;9.242;2022-08-19T00:20:22;98746.75;;;27.99
64624;BMP280;51031;50.912;9.242;2022-08-19T00:20:38;98757.75;;;27.97
64624;BMP280;51031;50.912;9.242;2022-08-19T00:20:55;98749.84;;;27.96
64624;BMP280;51031;50.912;9.242;2022-08-19T00:21:11;98751.06;;;27.93
64624;BMP280;51031;50.912;9.242;2022-08-19T00:21:27;98755.00;;;27.91
64624;BMP280;51031;50.912;9.242;2022-08-19T00:21:43;98757.06;;;27.89
64624;BMP280;51031;50.912;9.242;2022-08-19T00:21:59;98756.59;;;27.85
64624;BMP280;51031;50.912;9.242;2022-08-19T00:22:15;98763.19;;;27.83
64624;BMP280;51031;50.912;9.242;2022-08-19T00:22:33;98754.88;;;27.78
64624;BMP280;51031;50.912;9.242;2022-08-19T00:22:49;98749.88;;;27.75
64624;BMP280;51031;50.912;9.242;2022-08-19T00:23:04;98747.41;;;27.74
64624;BMP280;51031;50.912;9.242;2022-08-19T00:23:20;98754.66;;;27.73
64624;BMP280;51031;50.912;9.242;2022-08-19T00:23:36;98758.56;;;27.71
64624;BMP280;51031;50.912;9.242;2022-08-19T00:23:53;98755.22;;;27.69
64624;BMP280;51031;50.912;9.242;2022-08-19T00:24:11;98756.44;;;27.66
64624;BMP280;51031;50.912;9.242;2022-08-19T00:24:27;98755.81;;;27.64
64624;BMP280;51031;50.912;9.242;2022-08-19T00:24:44;98752.47;;;27.62
64624;BMP280;51031;50.912;9.242;2022-08-19T00:25:00;98751.84;;;27.60
64624;BMP280;51031;50.912;9.242;2022-08-19T00:25:17;98745.63;;;27.60
64624;BMP280;51031;50.912;9.242;2022-08-19T00:25:33;98751.00;;;27.60
64624;BMP280;51031;50.912;9.242;2022-08-19T00:25:49;98751.00;;;27.60
64624;BMP280;51031;50.912;9.242;2022-08-19T00:26:07;98746.63;;;27.59
64624;BMP280;51031;50.912;9.242;2022-08-19T00:26:22;98748.31;;;27.60
64624;BMP280;51031;50.912;9.242;2022-08-19T00:26:40;98750.16;;;27.59
64624;BMP280;51031;50.912;9.242;2022-08-19T00:26:59;98743.13;;;27.58
64624;BMP280;51031;50.912;9.242;2022-08-19T00:27:17;98741.25;;;27.59
64624;BMP280;51031;50.912;9.242;2022-08-19T00:27:33;98741.06;;;27.60
64624;BMP280;51031;50.912;9.242;2022-08-19T00:27:49;98743.94;;;27.59
64624;BMP280;51031;50.912;9.242;2022-08-19T00:28:04;98749.31;;;27.59
64624;BMP280;51031;50.912;9.242;2022-08-19T00:28:21;98748.50;;;27.58
64624;BMP280;51031;50.912;9.242;2022-08-19T00:28:40;98738.78;;;27.58
64624;BMP280;51031;50.912;9.242;2022-08-19T00:28:56;98741.47;;;27.58
64624;BMP280;51031;50.912;9.242;2022-08-19T00:29:14;98746.84;;;27.58
64624;BMP280;51031;50.912;9.242;2022-08-19T00:29:30;98737.72;;;27.58
64624;BMP280;51031;50.912;9.242;2022-08-19T00:29:47;98737.72;;;27.58
64624;BMP280;51031;50.912;9.242;2022-08-19T00:30:04;98731.31;;;27.59
64624;BMP280;51031;50.912;9.242;2022-08-19T00:30:21;98735.69;;;27.60
64624;BMP280;51031;50.912;9.242;2022-08-19T00:30:37;98736.53;;;27.61
64624;BMP280;51031;50.912;9.242;2022-08-19T00:30:53;98738.19;;;27.62
64624;BMP280;51031;50.912;9.242;2022-08-19T00:31:11;98728.22;;;27.62
64624;BMP280;51031;50.912;9.242;2022-08-19T00:31:26;98729.94;;;27.63
64624;BMP280;51031;50.912;9.242;2022-08-19T00:31:43;98729.72;;;27.65
64624;BMP280;51031;50.912;9.242;2022-08-19T00:32:01;98734.91;;;27.66
64624;BMP280;51031;50.912;9.242;2022-08-19T00:32:17;98724.97;;;27.67
64624;BMP280;51031;50.912;9.242;2022-08-19T00:32:33;98719.59;;;27.67
64624;BMP280;51031;50.912;9.242;2022-08-19T00:32:49;98726.44;;;27.69
64624;BMP280;51031;50.912;9.242;2022-08-19T00:33:06;98726.44;;;27.69
64624;BMP280;51031;50.912;9.242;2022-08-19T00:33:23;98720.03;;;27.70
64624;BMP280;51031;50.912;9.242;2022-08-19T00:33:41;98716.31;;;27.71
64624;BMP280;51031;50.912;9.242;2022-08-19T00:33:58;98725.03;;;27.73
64624;BMP280;51031;50.912;9.242;2022-08-19T00:34:14;98718.78;;;27.73
64624;BMP280;51031;50.912;9.242;2022-08-19T00:34:31;98721.31;;;27.74
64624;BMP280;51031;50.912;9.242;2022-08-19T00:34:47;98717.56;;;27.75
64624;BMP280;51031;50.912;9.242;2022-08-19T00:35:03;98719.22;;;27.76
64624;BMP280;51031;50.912;9.242;2022-08-19T00:35:19;98723.59;;;27.77
64624;BMP280;51031;50.912;9.242;2022-08-19T00:35:35;98725.25;;;27.78
64624;BMP280;51031;50.912;9.242;2022-08-19T00:35:55;98718.00;;;27.79
64624;BMP280;51031;50.912;9.242;2022-08-19T00:36:11;98722.56;;;27.78
64624;BMP280;51031;50.912;9.242;2022-08-19T00:36:27;98718.00;;;27.79
64624;BMP280;51031;50.912;9.242;2022-08-19T00:36:44;98715.13;;;27.80
64624;BMP280;51031;50.912;9.242;2022-08-19T00:37:00;98715.75;;;27.82
64624;BMP280;51031;50.912;9.242;2022-08-19T00:37:16;98720.31;;;27.82
64624;BMP280;51031;50.912;9.242;2022-08-19T00:37:33;98721.13;;;27.82
64624;BMP280;51031;50.912;9.242;2022-08-19T00:37:50;98720.09;;;27.83
64624;BMP280;51031;50.912;9.242;2022-08-19T00:38:06;98717.41;;;27.83
64624;BMP280;51031;50.912;9.242;2022-08-19T00:38:22;98722.63;;;27.85
64624;BMP280;51031;50.912;9.242;2022-08-19T00:38:40;98710.81;;;27.85
64624;BMP280;51031;50.912;9.242;2022-08-19T00:38:58;98720.53;;;27.86
64624;BMP280;51031;50.912;9.242;2022-08-19T00:39:15;98722.22;;;27.87
64624;BMP280;51031;50.912;9.242;2022-08-19T00:39:31;98715.00;;;27.88
64624;BMP280;51031;50.912;9.242;2022-08-19T00:39:47;98720.41;;;27.88
64624;BMP280;51031;50.912;9.242;2022-08-19T00:40:05;98719.19;;;27.90
64624;BMP280;51031;50.912;9.242;2022-08-19T00:40:21;98720.00;;;27.91
64624;BMP280;51031;50.912;9.242;2022-08-19T00:40:38;98713.56;;;27.92
64624;BMP280;51031;50.912;9.242;2022-08-19T00:40:55;98713.56;;;27.92
64624;BMP280;51031;50.912;9.242;2022-08-19T00:41:13;98721.25;;;27.95
64624;BMP280;51031;50.912;9.242;2022-08-19T00:41:29;98718.56;;;27.95
64624;BMP280;51031;50.912;9.242;2022-08-19T00:41:47;98720.22;;;27.96
64624;BMP280;51031;50.912;9.242;2022-08-19T00:42:05;98729.97;;;27.97
64624;BMP280;51031;50.912;9.242;2022-08-19T00:42:21;98717.34;;;27.97
64624;BMP280;51031;50.912;9.242;2022-08-19T00:42:38;98714.44;;;27.99
64624;BMP280;51031;50.912;9.242;2022-08-19T00:42:54;98718.78;;;28.00
64624;BMP280;51031;50.912;9.242;2022-08-19T00:43:10;98723.19;;;28.01
64624;BMP280;51031;50.912;9.242;2022-08-19T00:43:28;98721.09;;;28.03
64624;BMP280;51031;50.912;9.242;2022-08-19T00:43:56;98724.63;;;28.03
64624;BMP280;51031;50.912;9.242;2022-08-19T00:44:15;98723.59;;;28.04
64624;BMP280;51031;50.912;9.242;2022-08-19T00:44:32;98720.69;;;28.06
64624;BMP280;51031;50.912;9.242;2022-08-19T00:44:48;98722.34;;;28.07
64624;BMP280;51031;50.912;9.242;2022-08-19T00:45:10;98724.03;;;28.08
64624;BMP280;51031;50.912;9.242;2022-08-19T00:45:28;98717.63;;;28.09
64624;BMP280;51031;50.912;9.242;2022-08-19T00:45:46;98721.97;;;28.10
64624;BMP280;51031;50.912;9.242;2022-08-19T00:46:02;98730.69;;;28.12
64624;BMP280;51031;50.912;9.242;2022-08-19T00:46:20;98728.81;;;28.12
64624;BMP280;51031;50.912;9.242;2022-08-19T00:46:38;98726.34;;;28.11
64624;BMP280;51031;50.912;9.242;2022-08-19T00:46:57;98727.78;;;28.13
64624;BMP280;51031;50.912;9.242;2022-08-19T00:47:15;98724.91;;;28.14
64624;BMP280;51031;50.912;9.242;2022-08-19T00:47:31;98731.97;;;28.15
64624;BMP280;51031;50.912;9.242;2022-08-19T00:47:48;98726.56;;;28.15
64624;BMP280;51031;50.912;9.242;2022-08-19T00:48:04;98720.13;;;28.16
64624;BMP280;51031;50.912;9.242;2022-08-19T00:48:20;98724.53;;;28.17
64624;BMP280;51031;50.912;9.242;2022-08-19T00:48:36;98720.78;;;28.18
64624;BMP280;51031;50.912;9.242;2022-08-19T00:48:52;98718.09;;;28.18
64624;BMP280;51031;50.912;9.242;2022-08-19T00:49:16;98725.97;;;28.20
64624;BMP280;51031;50.912;9.242;2022-08-19T00:49:36;98724.94;;;28.21
64624;BMP280;51031;50.912;9.242;2022-08-19T00:49:56;98718.69;;;28.20
64624;BMP280;51031;50.912;9.242;2022-08-19T00:50:13;98723.91;;;28.22
64624;BMP280;51031;50.912;9.242;2022-08-19T00:50:33;98723.91;;;28.22
64624;BMP280;51031;50.912;9.242;2022-08-19T00:50:50;98719.34;;;28.22
64624;BMP280;51031;50.912;9.242;2022-08-19T00:51:08;98715.84;;;28.22
64624;BMP280;51031;50.912;9.242;2022-08-19T00:51:26;98725.56;;;28.23
64624;BMP280;51031;50.912;9.242;2022-08-19T00:51:45;98724.75;;;28.22
64624;BMP280;51031;50.912;9.242;2022-08-19T00:52:06;98717.47;;;28.23
64624;BMP280;51031;50.912;9.242;2022-08-19T00:52:26;98725.78;;;28.21
64624;BMP280;51031;50.912;9.242;2022-08-19T00:52:46;98721.22;;;28.22
64624;BMP280;51031;50.912;9.242;2022-08-19T00:53:03;98722.03;;;28.22
64624;BMP280;51031;50.912;9.242;2022-08-19T00:53:23;98714.19;;;28.21
64624;BMP280;51031;50.912;9.242;2022-08-19T00:53:41;98726.59;;;28.22
64624;BMP280;51031;50.912;9.242;2022-08-19T00:53:59;98716.66;;;28.22
64624;BMP280;51031;50.912;9.242;2022-08-19T00:54:19;98721.22;;;28.22
64624;BMP280;51031;50.912;9.242;2022-08-19T00:54:36;98716.66;;;28.22
64624;BMP280;51031;50.912;9.242;2022-08-19T00:54:53;98719.34;;;28.22
64624;BMP280;51031;50.912;9.242;2022-08-19T00:55:09;98723.69;;;28.23
64624;BMP280;51031;50.912;9.242;2022-08-19T00:55:28;98722.69;;;28.24
64624;BMP280;51031;50.912;9.242;2022-08-19T00:55:46;98719.13;;;28.24
64624;BMP280;51031;50.912;9.242;2022-08-19T00:56:03;98720.00;;;28.24
64624;BMP280;51031;50.912;9.242;2022-08-19T00:56:21;98714.59;;;28.24
64624;BMP280;51031;50.912;9.242;2022-08-19T00:56:41;98705.47;;;28.25
64624;BMP280;51031;50.912;9.242;2022-08-19T00:57:02;98715.44;;;28.25
64624;BMP280;51031;50.912;9.242;2022-08-19T00:57:24;98716.25;;;28.25
64624;BMP280;51031;50.912;9.242;2022-08-19T00:57:44;98709.84;;;28.26
64624;BMP280;51031;50.912;9.242;2022-08-19T00:58:03;98709.84;;;28.26
64624;BMP280;51031;50.912;9.242;2022-08-19T00:58:23;98709.84;;;28.26
64624;BMP280;51031;50.912;9.242;2022-08-19T00:58:40;98712.53;;;28.26
64624;BMP280;51031;50.912;9.242;2022-08-19T00:58:59;98707.13;;;28.26
64624;BMP280;51031;50.912;9.242;2022-08-19T00:59:17;98704.25;;;28.28
64624;BMP280;51031;50.912;9.242;2022-08-19T00:59:35;98709.66;;;28.28
64624;BMP280;51031;50.912;9.242;2022-08-19T00:59:52;98706.97;;;28.28
64624;BMP280;51031;50.912;9.242;2022-08-19T01:00:13;98707.78;;;28.28
64624;BMP280;51031;50.912;9.242;2022-08-19T01:00:30;98710.25;;;28.30
64624;BMP280;51031;50.912;9.242;2022-08-19T01:00:47;98707.56;;;28.30
64624;BMP280;51031;50.912;9.242;2022-08-19T01:01:04;98712.13;;;28.29
64624;BMP280;51031;50.912;9.242;2022-08-19T01:01:20;98702.19;;;28.30
64624;BMP280;51031;50.912;9.242;2022-08-19T01:01:37;98706.53;;;28.31
64624;BMP280;51031;50.912;9.242;2022-08-19T01:01:54;98709.22;;;28.31
64624;BMP280;51031;50.912;9.242;2022-08-19T01:02:10;98707.38;;;28.31
64624;BMP280;51031;50.912;9.242;2022-08-19T01:02:28;98704.69;;;28.31
64624;BMP280;51031;50.912;9.242;2022-08-19T01:02:44;98702.81;;;28.32
64624;BMP280;51031;50.912;9.242;2022-08-19T01:03:00;98706.34;;;28.32
64624;BMP280;51031;50.912;9.242;2022-08-19T01:03:19;98707.16;;;28.33
64624;BMP280;51031;50.912;9.242;2022-08-19T01:03:35;98708.00;;;28.33
64624;BMP280;51031;50.912;9.242;2022-08-19T01:03:51;98700.94;;;28.32
64624;BMP280;51031;50.912;9.242;2022-08-19T01:04:06;98704.25;;;28.34
64624;BMP280;51031;50.912;9.242;2022-08-19T01:04:22;98711.53;;;28.34
64624;BMP280;51031;50.912;9.242;2022-08-19T01:04:38;98715.03;;;28.34
64624;BMP280;51031;50.912;9.242;2022-08-19T01:04:54;98711.34;;;28.35
64624;BMP280;51031;50.912;9.242;2022-08-19T01:05:14;98706.97;;;28.34
64624;BMP280;51031;50.912;9.242;2022-08-19T01:05:31;98703.25;;;28.35
64624;BMP280;51031;50.912;9.242;2022-08-19T01:05:48;98711.13;;;28.37
64624;BMP280;51031;50.912;9.242;2022-08-19T01:06:05;98711.94;;;28.37
64624;BMP280;51031;50.912;9.242;2022-08-19T01:06:21;98709.25;;;28.37
64624;BMP280;51031;50.912;9.242;2022-08-19T01:06:39;98709.25;;;28.37
64624;BMP280;51031;50.912;9.242;2022-08-19T01:06:59;98710.94;;;28.38
64624;BMP280;51031;50.912;9.242;2022-08-19T01:07:15;98715.47;;;28.38
64624;BMP280;51031;50.912;9.242;2022-08-19T01:07:31;98709.25;;;28.37
64624;BMP280;51031;50.912;9.242;2022-08-19T01:07:48;98714.47;;;28.39
64624;BMP280;51031;50.912;9.242;2022-08-19T01:08:05;98709.25;;;28.37
64624;BMP280;51031;50.912;9.242;2022-08-19T01:08:23;98706.56;;;28.37
64624;BMP280;51031;50.912;9.242;2022-08-19T01:08:38;98707.59;;;28.36
64624;BMP280;51031;50.912;9.242;2022-08-19T01:08:57;98709.66;;;28.34
64624;BMP280;51031;50.912;9.242;2022-08-19T01:09:13;98706.97;;;28.34
64624;BMP280;51031;50.912;9.242;2022-08-19T01:09:29;98708.00;;;28.33
64624;BMP280;51031;50.912;9.242;2022-08-19T01:09:46;98707.16;;;28.33
64624;BMP280;51031;50.912;9.242;2022-08-19T01:10:04;98711.91;;;28.31
64624;BMP280;51031;50.912;9.242;2022-08-19T01:10:23;98712.34;;;28.28
64624;BMP280;51031;50.912;9.242;2022-08-19T01:10:42;98710.88;;;28.25
64624;BMP280;51031;50.912;9.242;2022-08-19T01:10:59;98720.00;;;28.24
64624;BMP280;51031;50.912;9.242;2022-08-19T01:11:18;98717.47;;;28.23
64624;BMP280;51031;50.912;9.242;2022-08-19T01:11:40;98716.00;;;28.20
64624;BMP280;51031;50.912;9.242;2022-08-19T01:12:00;98722.44;;;28.19
64624;BMP280;51031;50.912;9.242;2022-08-19T01:12:16;98724.53;;;28.17
64624;BMP280;51031;50.912;9.242;2022-08-19T01:12:33;98721.41;;;28.14
64624;BMP280;51031;50.912;9.242;2022-08-19T01:12:51;98719.28;;;28.10
64624;BMP280;51031;50.912;9.242;2022-08-19T01:13:08;98718.84;;;28.06
64624;BMP280;51031;50.912;9.242;2022-08-19T01:13:27;98720.28;;;28.02
64624;BMP280;51031;50.912;9.242;2022-08-19T01:13:45;98716.09;;;28.00
64624;BMP280;51031;50.912;9.242;2022-08-19T01:14:01;98720.03;;;27.97
64624;BMP280;51031;50.912;9.242;2022-08-19T01:14:18;98726.44;;;27.96
64624;BMP280;51031;50.912;9.242;2022-08-19T01:14:35;98721.44;;;27.93
64624;BMP280;51031;50.912;9.242;2022-08-19T01:14:53;98718.13;;;27.91
64624;BMP280;51031;50.912;9.242;2022-08-19T01:15:12;98720.41;;;27.88
64624;BMP280;51031;50.912;9.242;2022-08-19T01:15:31;98721.78;;;27.84
64624;BMP280;51031;50.912;9.242;2022-08-19T01:15:51;98711.41;;;27.81
64624;BMP280;51031;50.912;9.242;2022-08-19T01:16:10;98718.00;;;27.79
64624;BMP280;51031;50.912;9.242;2022-08-19T01:16:28;98719.22;;;27.76
64624;BMP280;51031;50.912;9.242;2022-08-19T01:16:45;98724.16;;;27.73
64624;BMP280;51031;50.912;9.242;2022-08-19T01:17:02;98717.53;;;27.69
64624;BMP280;51031;50.912;9.242;2022-08-19T01:17:19;98714.22;;;27.67
64624;BMP280;51031;50.912;9.242;2022-08-19T01:17:38;98719.97;;;27.64
64624;BMP280;51031;50.912;9.242;2022-08-19T01:17:57;98725.38;;;27.64
64624;BMP280;51031;50.912;9.242;2022-08-19T01:18:16;98728.22;;;27.62
64624;BMP280;51031;50.912;9.242;2022-08-19T01:18:41;98724.94;;;27.60
64624;BMP280;51031;50.912;9.242;2022-08-19T01:18:58;98723.06;;;27.61
64624;BMP280;51031;50.912;9.242;2022-08-19T01:19:23;98724.09;;;27.60
64624;BMP280;51031;50.912;9.242;2022-08-19T01:19:41;98723.25;;;27.59
64624;BMP280;51031;50.912;9.242;2022-08-19T01:19:57;98722.63;;;27.58
64624;BMP280;51031;50.912;9.242;2022-08-19T01:20:16;98719.72;;;27.59
64624;BMP280;51031;50.912;9.242;2022-08-19T01:20:34;98724.28;;;27.58
64624;BMP280;51031;50.912;9.242;2022-08-19T01:20:50;98722.63;;;27.58
64624;BMP280;51031;50.912;9.242;2022-08-19T01:21:10;98724.66;;;27.56
64624;BMP280;51031;50.912;9.242;2022-08-19T01:21:32;98723.84;;;27.55
64624;BMP280;51031;50.912;9.242;2022-08-19T01:21:53;98721.34;;;27.54
64624;BMP280;51031;50.912;9.242;2022-08-19T01:22:16;98719.88;;;27.51
64624;BMP280;51031;50.912;9.242;2022-08-19T01:22:37;98724.59;;;27.49
64624;BMP280;51031;50.912;9.242;2022-08-19T01:22:56;98723.16;;;27.47
64624;BMP280;51031;50.912;9.242;2022-08-19T01:23:13;98723.53;;;27.44
64624;BMP280;51031;50.912;9.242;2022-08-19T01:23:29;98719.81;;;27.45
64624;BMP280;51031;50.912;9.242;2022-08-19T01:23:59;98722.91;;;27.42
64624;BMP280;51031;50.912;9.242;2022-08-19T01:24:15;98710.47;;;27.41
64624;BMP280;51031;50.912;9.242;2022-08-19T01:24:31;98713.16;;;27.41
64624;BMP280;51031;50.912;9.242;2022-08-19T01:24:47;98716.69;;;27.41
64624;BMP280;51031;50.912;9.242;2022-08-19T01:25:04;98713.16;;;27.41
64624;BMP280;51031;50.912;9.242;2022-08-19T01:25:22;98709.44;;;27.42
64624;BMP280;51031;50.912;9.242;2022-08-19T01:25:43;98714.81;;;27.42
64624;BMP280;51031;50.912;9.242;2022-08-19T01:26:00;98715.66;;;27.42
64624;BMP280;51031;50.912;9.242;2022-08-19T01:26:18;98713.81;;;27.43
64624;BMP280;51031;50.912;9.242;2022-08-19T01:26:39;98715.47;;;27.44
64624;BMP280;51031;50.912;9.242;2022-08-19T01:26:57;98711.75;;;27.45
64624;BMP280;51031;50.912;9.242;2022-08-19T01:27:12;98714.44;;;27.45
64624;BMP280;51031;50.912;9.242;2022-08-19T01:27:37;98712.41;;;27.47
64624;BMP280;51031;50.912;9.242;2022-08-19T01:27:54;98708.66;;;27.48
64624;BMP280;51031;50.912;9.242;2022-08-19T01:28:15;98711.34;;;27.48
64624;BMP280;51031;50.912;9.242;2022-08-19T01:28:33;98714.69;;;27.50
64624;BMP280;51031;50.912;9.242;2022-08-19T01:28:51;98709.09;;;27.51
64624;BMP280;51031;50.912;9.242;2022-08-19T01:29:08;98701.88;;;27.52
64624;BMP280;51031;50.912;9.242;2022-08-19T01:29:26;98702.50;;;27.54
64624;BMP280;51031;50.912;9.242;2022-08-19T01:29:43;98704.16;;;27.55
64624;BMP280;51031;50.912;9.242;2022-08-19T01:30:01;98703.13;;;27.56
64624;BMP280;51031;50.912;9.242;2022-08-19T01:30:19;98694.88;;;27.57
64624;BMP280;51031;50.912;9.242;2022-08-19T01:30:37;98700.88;;;27.59
64624;BMP280;51031;50.912;9.242;2022-08-19T01:30:54;98703.41;;;27.60
64624;BMP280;51031;50.912;9.242;2022-08-19T01:31:14;98701.31;;;27.62
64624;BMP280;51031;50.912;9.242;2022-08-19T01:31:31;98699.28;;;27.64
64624;BMP280;51031;50.912;9.242;2022-08-19T01:31:47;98698.25;;;27.65
64624;BMP280;51031;50.912;9.242;2022-08-19T01:32:09;98693.50;;;27.67
64624;BMP280;51031;50.912;9.242;2022-08-19T01:32:27;98692.28;;;27.70
64624;BMP280;51031;50.912;9.242;2022-08-19T01:32:43;98694.78;;;27.71
64624;BMP280;51031;50.912;9.242;2022-08-19T01:33:00;98701.81;;;27.72
64624;BMP280;51031;50.912;9.242;2022-08-19T01:33:16;98694.38;;;27.74
64624;BMP280;51031;50.912;9.242;2022-08-19T01:33:32;98696.03;;;27.75
64624;BMP280;51031;50.912;9.242;2022-08-19T01:33:49;98695.63;;;27.78
64624;BMP280;51031;50.912;9.242;2022-08-19T01:34:05;98698.97;;;27.80
64624;BMP280;51031;50.912;9.242;2022-08-19T01:34:21;98696.91;;;27.82
64624;BMP280;51031;50.912;9.242;2022-08-19T01:34:39;98700.25;;;27.84
64624;BMP280;51031;50.912;9.242;2022-08-19T01:34:54;98696.50;;;27.85
64624;BMP280;51031;50.912;9.242;2022-08-19T01:35:11;98692.78;;;27.86
64624;BMP280;51031;50.912;9.242;2022-08-19T01:35:29;98690.78;;;27.88
64624;BMP280;51031;50.912;9.242;2022-08-19T01:35:48;98694.94;;;27.90
64624;BMP280;51031;50.912;9.242;2022-08-19T01:36:09;98696.38;;;27.93
64624;BMP280;51031;50.912;9.242;2022-08-19T01:36:31;98697.03;;;27.95
64624;BMP280;51031;50.912;9.242;2022-08-19T01:36:47;98693.28;;;27.96
64624;BMP280;51031;50.912;9.242;2022-08-19T01:37:06;98691.25;;;27.98
64624;BMP280;51031;50.912;9.242;2022-08-19T01:37:26;98696.41;;;27.99
64624;BMP280;51031;50.912;9.242;2022-08-19T01:37:45;98697.06;;;28.01
64624;BMP280;51031;50.912;9.242;2022-08-19T01:38:04;98699.53;;;28.03
64624;BMP280;51031;50.912;9.242;2022-08-19T01:38:25;98704.53;;;28.06
64624;BMP280;51031;50.912;9.242;2022-08-19T01:38:43;98698.13;;;28.07
64624;BMP280;51031;50.912;9.242;2022-08-19T01:39:02;98701.44;;;28.09
64624;BMP280;51031;50.912;9.242;2022-08-19T01:39:21;98696.72;;;28.11
64624;BMP280;51031;50.912;9.242;2022-08-19T01:39:39;98709.97;;;28.12
64624;BMP280;51031;50.912;9.242;2022-08-19T01:39:56;98701.69;;;28.13
64624;BMP280;51031;50.912;9.242;2022-08-19T01:40:12;98703.34;;;28.14
64624;BMP280;51031;50.912;9.242;2022-08-19T01:40:31;98705.84;;;28.16
64624;BMP280;51031;50.912;9.242;2022-08-19T01:40:47;98711.06;;;28.17